createdAt,value
2022-10-22T00:00:58.176Z,3.90
2022-10-22T00:03:24.584Z,3.97
2022-10-22T00:05:50.905Z,4.30
2022-10-22T00:08:54.978Z,3.80
2022-10-22T00:11:21.426Z,4.00
2022-10-22T00:16:19.064Z,3.70
2022-10-22T00:18:45.400Z,3.92
2022-10-22T00:21:12.132Z,4.00
2022-10-22T00:23:42.510Z,4.03
2022-10-22T00:26:08.883Z,4.10
2022-10-22T00:28:35.396Z,4.25
2022-10-22T00:31:01.871Z,3.60
2022-10-22T00:33:28.929Z,4.13
2022-10-22T00:35:55.239Z,4.20
2022-10-22T00:38:40.287Z,4.10
2022-10-22T00:44:01.607Z,3.63
2022-10-22T00:46:46.330Z,3.78
2022-10-22T00:49:12.800Z,3.88
2022-10-22T00:51:39.060Z,4.10
2022-10-22T00:54:06.671Z,4.22
2022-10-22T00:56:51.603Z,3.42
2022-10-22T00:59:18.479Z,3.70
2022-10-22T01:01:45.182Z,4.07
2022-10-22T01:04:11.556Z,4.03
2022-10-22T01:06:56.433Z,3.90
2022-10-22T01:09:31.900Z,3.85
2022-10-22T01:12:07.485Z,4.20
2022-10-22T01:14:33.888Z,3.60
2022-10-22T01:17:03.211Z,3.97
2022-10-22T01:19:32.728Z,4.93
2022-10-22T01:24:46.821Z,4.07
2022-10-22T01:27:20.010Z,3.78
2022-10-22T01:30:12.618Z,3.85
2022-10-22T01:32:50.164Z,3.83
2022-10-22T01:38:05.139Z,4.13
2022-10-22T01:43:16.652Z,3.55
2022-10-22T01:46:01.696Z,3.22
2022-10-22T01:48:35.079Z,3.60
2022-10-22T01:51:20.131Z,3.88
2022-10-22T01:53:46.539Z,3.58
2022-10-22T01:56:18.076Z,3.60
2022-10-22T01:58:44.410Z,3.53
2022-10-22T02:01:25.988Z,3.80
2022-10-22T02:04:11.152Z,3.75
2022-10-22T02:06:38.595Z,3.90
2022-10-22T02:09:05.929Z,3.88
2022-10-22T02:11:32.319Z,3.75
2022-10-22T02:14:00.028Z,3.53
2022-10-22T02:16:35.591Z,3.35
2022-10-22T02:19:03.152Z,3.50
2022-10-22T02:21:48.186Z,2.75
2022-10-22T02:24:14.684Z,3.70
2022-10-22T02:26:46.539Z,3.28
2022-10-22T02:29:20.353Z,3.20
2022-10-22T02:31:47.780Z,2.88
2022-10-22T02:34:16.321Z,3.65
2022-10-22T02:37:01.366Z,3.03
2022-10-22T02:39:28.291Z,3.38
2022-10-22T02:41:55.510Z,3.50
2022-10-22T02:44:22.401Z,2.90
2022-10-22T02:46:49.014Z,3.58
2022-10-22T02:49:15.305Z,3.80
2022-10-22T02:51:41.597Z,3.45
2022-10-22T02:54:08.028Z,3.17
2022-10-22T02:56:34.463Z,3.53
2022-10-22T02:59:00.759Z,3.78
2022-10-22T03:01:27.068Z,3.55
2022-10-22T03:03:53.433Z,3.63
2022-10-22T03:06:20.310Z,3.65
2022-10-22T03:08:46.897Z,3.72
2022-10-22T03:11:13.291Z,3.67
2022-10-22T03:13:39.647Z,3.58
2022-10-22T03:16:06.078Z,3.90
2022-10-22T03:18:32.410Z,3.88
2022-10-22T03:21:24.668Z,4.10
2022-10-22T03:23:51.632Z,3.88
2022-10-22T03:26:18.515Z,4.13
2022-10-22T03:28:46.693Z,4.20
2022-10-22T03:31:13.007Z,4.43
2022-10-22T03:33:39.396Z,4.47
2022-10-22T03:36:06.515Z,3.92
2022-10-22T03:41:35.782Z,4.05
2022-10-22T03:44:02.913Z,4.32
2022-10-22T03:49:32.120Z,4.07
2022-10-22T03:51:58.449Z,4.45
2022-10-22T03:57:09.335Z,4.88
2022-10-22T03:59:39.433Z,4.78
2022-10-22T04:02:24.522Z,4.90
2022-10-22T04:04:50.977Z,4.63
2022-10-22T04:07:17.371Z,4.30
2022-10-22T04:09:43.709Z,4.40
2022-10-22T04:14:54.436Z,5.05
2022-10-22T04:17:20.957Z,4.75
2022-10-22T04:19:47.237Z,4.85
2022-10-22T04:22:13.692Z,4.60
2022-10-22T04:24:58.691Z,4.38
2022-10-22T04:27:25.010Z,4.40
2022-10-22T04:29:52.084Z,4.47
2022-10-22T04:32:18.619Z,4.18
2022-10-22T04:34:45.036Z,5.07
2022-10-22T04:37:11.340Z,4.50
2022-10-22T04:39:58.161Z,5.05
2022-10-22T04:43:02.212Z,4.15
2022-10-22T04:45:47.115Z,4.28
2022-10-22T04:48:13.474Z,4.28
2022-10-22T04:50:39.771Z,5.03
2022-10-22T04:53:09.044Z,4.22
2022-10-22T04:55:35.638Z,4.35
2022-10-22T04:58:01.931Z,4.70
2022-10-22T05:00:28.227Z,4.68
2022-10-22T05:02:54.498Z,4.22
2022-10-22T05:05:20.827Z,4.40
2022-10-22T05:07:47.123Z,5.13
2022-10-22T05:10:13.491Z,4.40
2022-10-22T05:12:39.808Z,5.15
2022-10-22T05:15:06.432Z,4.32
2022-10-22T05:17:35.403Z,5.13
2022-10-22T05:20:01.850Z,4.95
2022-10-22T05:22:28.193Z,4.63
2022-10-22T05:24:54.644Z,4.82
2022-10-22T05:27:21.412Z,4.53
2022-10-22T05:29:47.730Z,4.70
2022-10-22T05:32:14.046Z,4.82
2022-10-22T05:34:40.343Z,4.63
2022-10-22T05:37:06.694Z,4.53
2022-10-22T05:39:36.549Z,4.57
2022-10-22T05:42:03.567Z,4.80
2022-10-22T05:44:29.887Z,4.32
2022-10-22T05:46:56.181Z,4.75
2022-10-22T05:49:22.494Z,5.40
2022-10-22T05:51:48.949Z,4.43
2022-10-22T05:54:19.629Z,4.40
2022-10-22T05:56:46.049Z,4.57
2022-10-22T05:59:12.472Z,4.30
2022-10-22T06:01:39.285Z,4.53
2022-10-22T06:04:06.931Z,4.72
2022-10-22T06:06:34.616Z,4.20
2022-10-22T06:09:06.350Z,4.32
2022-10-22T06:11:35.161Z,4.70
2022-10-22T06:14:02.015Z,4.32
2022-10-22T06:16:29.427Z,4.65
2022-10-22T06:19:15.063Z,4.30
2022-10-22T06:21:41.609Z,3.85
2022-10-22T06:24:26.527Z,4.05
2022-10-22T06:26:53.267Z,3.97
2022-10-22T06:29:19.986Z,4.22
2022-10-22T06:31:46.391Z,4.20
2022-10-22T06:34:13.672Z,4.70
2022-10-22T06:36:42.491Z,4.00
2022-10-22T06:39:11.694Z,4.47
2022-10-22T06:41:38.085Z,4.35
2022-10-22T06:44:05.475Z,4.22
2022-10-22T06:46:32.144Z,4.65
2022-10-22T06:49:00.048Z,3.85
2022-10-22T06:51:26.736Z,4.22
2022-10-22T06:53:54.157Z,3.45
2022-10-22T06:56:21.972Z,3.78
2022-10-22T06:58:52.010Z,3.90
2022-10-22T07:01:36.836Z,3.83
2022-10-22T07:04:03.467Z,3.70
2022-10-22T07:06:30.002Z,3.53
2022-10-22T07:08:57.078Z,3.63
2022-10-22T07:11:25.584Z,3.85
2022-10-22T07:16:34.196Z,3.08
2022-10-22T07:19:00.957Z,3.55
2022-10-22T07:21:27.725Z,3.58
2022-10-22T07:26:37.980Z,3.20
2022-10-22T07:29:04.288Z,3.20
2022-10-22T07:31:30.797Z,3.30
2022-10-22T07:33:57.492Z,3.33
2022-10-22T07:36:23.821Z,3.00
2022-10-22T07:38:54.314Z,3.45
2022-10-22T07:41:20.583Z,3.25
2022-10-22T07:43:47.060Z,3.13
2022-10-22T07:46:13.360Z,3.15
2022-10-22T07:48:39.941Z,3.95
2022-10-22T07:51:06.531Z,3.53
2022-10-22T07:53:33.332Z,3.35
2022-10-22T07:55:59.688Z,3.60
2022-10-22T08:01:10.101Z,3.03
2022-10-22T08:03:36.559Z,3.00
2022-10-22T08:06:03.009Z,3.20
2022-10-22T08:08:30.869Z,4.05
2022-10-22T08:10:58.921Z,3.20
2022-10-22T08:13:26.349Z,3.17
2022-10-22T08:15:56.490Z,3.20
2022-10-22T08:18:42.971Z,3.50
2022-10-22T08:21:09.681Z,3.15
2022-10-22T08:26:21.251Z,2.85
2022-10-22T08:28:47.525Z,2.75
2022-10-22T08:31:14.387Z,2.47
2022-10-22T08:33:41.815Z,2.95
2022-10-22T08:36:08.518Z,2.60
2022-10-22T08:38:35.275Z,4.28
2022-10-22T08:41:15.978Z,2.47
2022-10-22T08:43:45.314Z,3.10
2022-10-22T08:46:20.688Z,3.72
2022-10-22T08:48:47.037Z,3.03
2022-10-22T08:51:18.516Z,2.30
2022-10-22T08:54:03.543Z,2.70
2022-10-22T08:56:30.663Z,2.80
2022-10-22T08:59:03.423Z,2.30
2022-10-22T09:01:38.443Z,2.92
2022-10-22T09:04:23.511Z,2.50
2022-10-22T09:06:53.480Z,2.80
2022-10-22T09:11:50.997Z,3.13
2022-10-22T09:14:22.060Z,2.65
2022-10-22T09:16:54.256Z,2.80
2022-10-22T09:19:23.628Z,2.60
2022-10-22T09:22:00.516Z,2.72
2022-10-22T09:24:50.228Z,2.92
2022-10-22T09:27:18.403Z,2.70
2022-10-22T09:29:45.803Z,3.55
2022-10-22T09:32:12.294Z,2.55
2022-10-22T09:34:39.002Z,2.25
2022-10-22T09:37:23.777Z,2.20
2022-10-22T09:39:53.592Z,3.10
2022-10-22T09:42:20.898Z,2.53
2022-10-22T09:44:52.735Z,2.42
2022-10-22T09:47:42.523Z,3.10
2022-10-22T09:50:14.584Z,2.53
2022-10-22T09:52:41.479Z,2.72
2022-10-22T09:58:13.045Z,2.20
2022-10-22T10:00:40.317Z,2.58
2022-10-22T10:03:06.685Z,2.28
2022-10-22T10:05:37.567Z,2.45
2022-10-22T10:08:14.866Z,2.58
2022-10-22T10:10:41.123Z,2.22
2022-10-22T10:13:17.708Z,2.58
2022-10-22T10:15:49.949Z,3.10
2022-10-22T10:18:32.571Z,2.55
2022-10-22T10:21:04.948Z,2.33
2022-10-22T10:23:57.597Z,2.83
2022-10-22T10:26:45.467Z,2.50
2022-10-22T10:29:17.738Z,2.28
2022-10-22T10:32:02.789Z,2.47
2022-10-22T10:34:29.097Z,2.25
2022-10-22T10:37:14.426Z,2.10
2022-10-22T10:39:55.828Z,2.58
2022-10-22T10:42:47.080Z,2.22
2022-10-22T10:45:28.085Z,2.58
2022-10-22T10:51:17.254Z,2.28
2022-10-22T10:54:01.926Z,2.60
2022-10-22T10:56:33.440Z,2.58
2022-10-22T10:59:19.030Z,2.28
2022-10-22T11:01:53.721Z,1.75
2022-10-22T11:04:20.112Z,1.67
2022-10-22T11:07:11.246Z,2.70
2022-10-22T11:09:50.520Z,2.15
2022-10-22T11:12:26.637Z,2.15
2022-10-22T11:15:01.390Z,2.13
2022-10-22T11:17:32.108Z,2.25
2022-10-22T11:22:30.121Z,1.83
2022-10-22T11:25:15.164Z,2.10
2022-10-22T11:28:06.608Z,2.22
2022-10-22T11:30:36.285Z,1.80
2022-10-22T11:33:04.258Z,1.98
2022-10-22T11:35:31.796Z,1.95
2022-10-22T11:37:58.396Z,2.20
2022-10-22T11:40:37.662Z,2.38
2022-10-22T11:43:07.247Z,1.88
2022-10-22T11:45:38.316Z,2.25
2022-10-22T11:48:10.581Z,2.33
2022-10-22T11:50:48.892Z,2.10
2022-10-22T11:53:15.228Z,2.20
2022-10-22T11:55:51.565Z,2.65
2022-10-22T11:58:35.152Z,1.77
2022-10-22T12:01:01.685Z,2.17
2022-10-22T12:03:31.074Z,2.17
2022-10-22T12:06:12.895Z,2.88
2022-10-22T12:08:51.320Z,2.45
2022-10-22T12:11:21.764Z,1.95
2022-10-22T12:16:56.623Z,1.95
2022-10-22T12:19:42.519Z,2.50
2022-10-22T12:22:14.940Z,2.80
2022-10-22T12:24:44.401Z,2.65
2022-10-22T12:27:30.013Z,2.10
2022-10-22T12:29:57.499Z,3.17
2022-10-22T12:32:29.081Z,2.20
2022-10-22T12:35:14.053Z,2.05
2022-10-22T12:37:40.752Z,2.35
2022-10-22T12:40:26.315Z,2.72
2022-10-22T12:45:50.467Z,2.40
2022-10-22T12:48:16.787Z,2.70
2022-10-22T12:50:44.584Z,2.60
2022-10-22T12:53:19.326Z,2.78
2022-10-22T12:56:06.103Z,2.70
2022-10-22T12:58:37.216Z,2.15
2022-10-22T13:01:22.028Z,2.92
2022-10-22T13:03:50.415Z,2.17
2022-10-22T13:06:19.953Z,2.47
2022-10-22T13:08:55.556Z,2.60
2022-10-22T13:11:21.921Z,2.08
2022-10-22T13:13:48.468Z,2.33
2022-10-22T13:16:24.195Z,2.70
2022-10-22T13:18:51.388Z,3.40
2022-10-22T13:21:29.930Z,2.42
2022-10-22T13:24:00.688Z,2.80
2022-10-22T13:26:45.927Z,2.92
2022-10-22T13:29:14.317Z,3.38
2022-10-22T13:31:45.684Z,2.47
2022-10-22T13:34:17.242Z,2.83
2022-10-22T13:36:43.640Z,2.53
2022-10-22T13:39:17.382Z,3.05
2022-10-22T13:42:02.697Z,2.33
2022-10-22T13:44:29.068Z,2.75
2022-10-22T13:46:56.184Z,3.00
2022-10-22T13:49:23.328Z,2.85
2022-10-22T13:51:50.806Z,2.92
2022-10-22T13:54:18.908Z,3.35
2022-10-22T13:56:45.340Z,2.90
2022-10-22T13:59:30.113Z,2.75
2022-10-22T14:02:17.359Z,2.75
2022-10-22T14:04:43.840Z,2.97
2022-10-22T14:07:28.679Z,3.22
2022-10-22T14:09:54.980Z,2.78
2022-10-22T14:12:21.352Z,3.40
2022-10-22T14:14:47.871Z,2.50
2022-10-22T14:17:16.643Z,2.60
2022-10-22T14:19:44.575Z,3.28
2022-10-22T14:22:33.460Z,3.10
2022-10-22T14:24:59.850Z,2.67
2022-10-22T14:27:26.159Z,2.60
2022-10-22T14:30:29.807Z,2.83
2022-10-22T14:32:57.570Z,2.85
2022-10-22T14:35:24.199Z,2.17
2022-10-22T14:37:50.777Z,2.78
2022-10-22T14:40:18.424Z,2.83
2022-10-22T14:42:46.647Z,2.65
2022-10-22T14:48:03.417Z,2.60
2022-10-22T14:50:29.921Z,2.72
2022-10-22T14:52:59.698Z,2.42
2022-10-22T14:55:44.672Z,2.67
2022-10-22T14:58:12.209Z,2.65
2022-10-22T15:00:40.786Z,1.92
2022-10-22T15:03:07.163Z,2.33
2022-10-22T15:05:33.487Z,2.70
2022-10-22T15:08:00.192Z,2.65
2022-10-22T15:10:26.602Z,2.45
2022-10-22T15:12:53.167Z,2.63
2022-10-22T15:15:22.612Z,2.80
2022-10-22T15:17:49.772Z,2.47
2022-10-22T15:20:16.312Z,3.03
2022-10-22T15:22:43.139Z,2.58
2022-10-22T15:25:09.973Z,3.13
2022-10-22T15:27:36.354Z,2.80
2022-10-22T15:32:34.150Z,2.55
2022-10-22T15:35:01.353Z,2.70
2022-10-22T15:37:27.715Z,2.50
2022-10-22T15:39:54.158Z,3.10
2022-10-22T15:42:20.535Z,2.38
2022-10-22T15:44:46.968Z,3.25
2022-10-22T15:47:13.323Z,3.05
2022-10-22T15:49:39.696Z,2.58
2022-10-22T15:52:06.203Z,2.72
2022-10-22T15:54:32.876Z,2.50
2022-10-22T15:57:00.162Z,3.47
2022-10-22T15:59:26.556Z,2.65
2022-10-22T16:01:52.990Z,2.20
2022-10-22T16:04:38.306Z,3.67
2022-10-22T16:07:04.612Z,2.42
2022-10-22T16:12:17.229Z,2.90
2022-10-22T16:14:44.834Z,2.70
2022-10-22T16:17:11.265Z,2.55
2022-10-22T16:19:37.576Z,2.85
2022-10-22T16:24:48.063Z,2.45
2022-10-22T16:29:58.078Z,2.75
2022-10-22T16:32:24.392Z,3.13
2022-10-22T16:34:50.728Z,2.65
2022-10-22T16:37:17.265Z,2.67
2022-10-22T16:39:43.753Z,2.88
2022-10-22T16:42:10.038Z,2.70
2022-10-22T16:44:36.463Z,2.70
2022-10-22T16:47:02.755Z,2.72
2022-10-22T16:52:12.757Z,2.65
2022-10-22T16:54:39.328Z,3.25
2022-10-22T16:57:05.701Z,2.88
2022-10-22T16:59:32.179Z,3.60
2022-10-22T17:01:58.928Z,3.38
2022-10-22T17:04:25.439Z,2.63
2022-10-22T17:06:51.754Z,2.63
2022-10-22T17:09:18.167Z,3.20
2022-10-22T17:11:45.012Z,3.00
2022-10-22T17:14:11.734Z,3.03
2022-10-22T17:16:38.141Z,3.85
2022-10-22T17:19:05.050Z,3.97
2022-10-22T17:21:31.461Z,4.63
2022-10-22T17:23:57.900Z,4.55
2022-10-22T17:26:26.278Z,4.85
2022-10-22T17:28:52.874Z,6.43
2022-10-22T17:31:20.589Z,5.00
2022-10-22T17:34:06.301Z,4.60
2022-10-22T17:36:35.672Z,4.25
2022-10-22T17:39:04.106Z,3.70
2022-10-22T17:41:31.441Z,4.43
2022-10-22T17:44:01.341Z,4.40
2022-10-22T17:46:28.696Z,5.43
2022-10-22T17:51:46.470Z,4.25
2022-10-22T17:56:57.167Z,5.22
2022-10-22T17:59:23.717Z,5.22
2022-10-22T18:01:50.343Z,4.50
2022-10-22T18:04:18.055Z,4.75
2022-10-22T18:06:46.078Z,5.38
2022-10-22T18:09:17.304Z,4.30
2022-10-22T18:11:46.463Z,4.93
2022-10-22T18:14:12.869Z,4.43
2022-10-22T18:16:39.171Z,3.63
2022-10-22T18:19:05.603Z,3.58
2022-10-22T18:24:13.645Z,4.07
2022-10-22T18:26:40.040Z,3.80
2022-10-22T18:29:06.688Z,3.70
2022-10-22T18:31:33.378Z,3.53
2022-10-22T18:33:59.793Z,4.07
2022-10-22T18:36:27.278Z,4.60
2022-10-22T18:38:54.957Z,5.32
2022-10-22T18:41:21.670Z,4.55
2022-10-22T18:43:51.746Z,4.50
2022-10-22T18:46:18.718Z,4.70
2022-10-22T18:48:45.606Z,3.10
2022-10-22T18:51:11.962Z,3.55
2022-10-22T18:53:38.382Z,3.00
2022-10-22T18:56:05.569Z,2.83
2022-10-22T18:58:36.516Z,2.92
2022-10-22T19:03:29.217Z,3.65
2022-10-22T19:05:59.845Z,3.83
2022-10-22T19:08:26.209Z,4.18
2022-10-22T19:11:12.595Z,4.10
2022-10-22T19:13:39.420Z,4.32
2022-10-22T19:16:06.798Z,3.78
2022-10-22T19:18:33.815Z,4.35
2022-10-22T19:21:01.336Z,3.97
2022-10-22T19:23:30.120Z,4.07
2022-10-22T19:26:04.689Z,4.25
2022-10-22T19:28:31.541Z,4.40
2022-10-22T19:30:58.710Z,4.40
2022-10-22T19:33:25.885Z,4.45
2022-10-22T19:38:55.203Z,4.43
2022-10-22T19:41:22.489Z,5.35
2022-10-22T19:43:50.170Z,6.22
2022-10-22T19:46:16.731Z,6.80
2022-10-22T19:48:43.103Z,6.68
2022-10-22T19:51:11.000Z,6.20
2022-10-22T19:53:38.422Z,6.82
2022-10-22T19:56:24.818Z,6.22
2022-10-22T19:58:51.215Z,6.32
2022-10-22T20:01:18.341Z,5.68
2022-10-22T20:03:45.224Z,6.43
2022-10-22T20:06:12.443Z,5.70
2022-10-22T20:08:39.145Z,5.78
2022-10-22T20:11:07.154Z,5.93
2022-10-22T20:13:34.186Z,6.25
2022-10-22T20:16:00.540Z,6.28
2022-10-22T20:18:26.965Z,6.30
2022-10-22T20:20:53.320Z,6.15
2022-10-22T20:23:19.903Z,5.43
2022-10-22T20:25:47.351Z,5.18
2022-10-22T20:28:14.055Z,5.10
2022-10-22T20:30:42.100Z,5.22
2022-10-22T20:33:14.488Z,5.43
2022-10-22T20:35:40.840Z,5.30
2022-10-22T20:38:08.300Z,5.95
2022-10-22T20:40:34.662Z,6.25
2022-10-22T20:43:19.863Z,7.90
2022-10-22T20:45:46.378Z,8.00
2022-10-22T20:48:12.673Z,8.65
2022-10-22T20:53:23.489Z,7.93
2022-10-22T20:55:51.280Z,8.60
2022-10-22T20:58:17.714Z,8.25
2022-10-22T21:00:44.807Z,8.82
2022-10-22T21:03:11.628Z,5.40
2022-10-22T21:05:38.136Z,4.70
2022-10-22T21:08:22.981Z,5.13
2022-10-22T21:10:49.673Z,5.50
2022-10-22T21:13:34.813Z,6.53
2022-10-22T21:16:06.744Z,6.05
2022-10-22T21:18:33.507Z,6.93
2022-10-22T21:20:59.841Z,7.38
2022-10-22T21:23:26.335Z,6.93
2022-10-22T21:25:53.995Z,7.13
2022-10-22T21:28:39.234Z,7.60
2022-10-22T21:31:06.551Z,7.60
2022-10-22T21:33:35.642Z,8.23
2022-10-22T21:36:22.986Z,8.68
2022-10-22T21:38:50.511Z,9.18
2022-10-22T21:41:17.835Z,8.55
2022-10-22T21:43:44.639Z,9.70
2022-10-22T21:46:18.654Z,10.50
2022-10-22T21:48:45.337Z,9.82
2022-10-22T21:51:31.608Z,10.15
2022-10-22T21:53:58.123Z,9.55
2022-10-22T21:56:25.921Z,8.85
2022-10-22T21:58:52.302Z,7.95
2022-10-22T22:01:18.686Z,10.25
2022-10-22T22:03:46.488Z,9.25
2022-10-22T22:06:12.937Z,9.38
2022-10-22T22:08:39.638Z,9.98
2022-10-22T22:11:07.692Z,9.40
2022-10-22T22:13:34.396Z,10.18
2022-10-22T22:16:01.693Z,10.98
2022-10-22T22:18:46.896Z,8.93
2022-10-22T22:21:14.564Z,9.32
2022-10-22T22:23:42.442Z,8.77
2022-10-22T22:26:09.261Z,10.75
2022-10-22T22:28:54.323Z,11.02
2022-10-22T22:31:28.219Z,10.80
2022-10-22T22:34:01.883Z,10.10
2022-10-22T22:36:28.630Z,9.93
2022-10-22T22:38:56.108Z,10.25
2022-10-22T22:41:22.676Z,10.13
2022-10-22T22:43:49.136Z,11.02
2022-10-22T22:46:15.446Z,11.18
2022-10-22T22:49:00.533Z,11.02
2022-10-22T22:51:26.862Z,11.60
2022-10-22T22:53:53.431Z,11.93
2022-10-22T22:56:42.634Z,11.70
2022-10-22T22:59:10.397Z,10.90
2022-10-22T23:01:38.101Z,12.00
2022-10-22T23:04:05.687Z,11.60
2022-10-22T23:06:33.859Z,10.85
2022-10-22T23:09:00.519Z,9.38
2022-10-22T23:11:27.480Z,8.07
2022-10-22T23:13:55.446Z,8.32
2022-10-22T23:19:08.056Z,8.23
2022-10-22T23:21:35.516Z,8.95
2022-10-22T23:24:03.202Z,9.13
2022-10-22T23:26:31.237Z,9.35
2022-10-22T23:29:01.741Z,9.88
2022-10-22T23:31:28.064Z,10.00
2022-10-22T23:33:54.574Z,9.52
2022-10-22T23:36:39.776Z,9.82
2022-10-22T23:39:25.814Z,9.30
2022-10-22T23:44:36.964Z,8.60
2022-10-22T23:47:03.294Z,9.07
2022-10-22T23:49:29.763Z,9.40
2022-10-22T23:51:56.051Z,9.27
2022-10-22T23:54:22.397Z,8.90
2022-10-22T23:56:48.823Z,10.00
2022-10-22T23:59:15.938Z,10.15
